Mads Maehle

Olheiro-Chefe - FC Nordsjaelland
19 Nov 2028
Domingo
Processo

Personalidade

Adaptabilidade (4) Ambição (16) Controvérsia (1) Lealdade (12) Pressão (11) Profissionalismo (19) Espírito Esportivo (7) Temperamento (14)

Perfil

Estilo de Treinamento Democrático
Licença Continental C
Determinação 10
Gestão de Pessoas 6
Motivação 5
Disciplina 10
Satisfação no Trabalho
100%
Fadiga
0%
Função Olheiro-Chefe
Salário 17.2K p/s
Contrato 14.03.2030

Desempenho

Comportamento Bom
Eficácia do Treinamento
46%
Desenvolvimento do Jogador
50%
Prevenção de Lesões
50%
Implementação Tática
25%

Eventos Recentes

Participou de uma reunião de recrutamento agora
Recomendou um alvo de transferência agora
Participou de uma reunião de recrutamento 7d atrás
Recomendou um alvo de transferência 7d atrás
Recomendou um alvo de transferência 7d atrás
Recomendou um alvo de transferência 7d atrás
Recomendou um alvo de transferência 14d atrás
Recomendou um alvo de transferência 14d atrás

Monitorando agora

137
Jogador Clube Status Habilidade Confiança Observado Última observação Último voto
Musa Danjuma Umraniyespor Ativo 101 / 105 40% 3 28.06.2028 -
Honest Ahanor Atalanta Ativo 137 / 153 40% 5 20.06.2028 -
Bernardo Lima Porto Ativo 111 / 132 40% 2 20.06.2028 -
Amine Boukamir Charleroi Ativo 104 / 105 40% 3 12.06.2028 -
Konta Ismaily Ativo 90 / 119 40% 3 12.06.2028 -
Giovanni Leoni Lincoln City Ativo 136 / 132 40% 2 31.05.2028 -
Dmytro Strilchuk Podillia Ativo 79 / 79 40% 2 31.05.2028 -
Riquelme Thompson-Jones Accrington Stanley Ativo 107 / 114 40% 3 30.05.2028 -
Andrija Bulatović Chamois Niortais Ativo 123 / 122 40% 4 28.05.2028 -
Daniel Banjaqui Benfica Ativo 126 / 140 40% 4 28.05.2028 -
Simone Suppa Virtus Verona Ativo 92 / 100 40% 1 28.05.2028 -
Lucas Høgsberg RC Strasbourg Ativo 139 / 152 40% 4 23.05.2028 -
Josh Nichols Oldham Athletic Ativo 118 / 117 40% 3 23.05.2028 -
Jorthy Mokio ADO Den Haag Ativo 127 / 148 40% 4 22.05.2028 -
Nicolò Moranduzzo Renate Ativo 88 / 94 40% 3 22.05.2028 -
Noah Markmann Esbjerg Ativo 120 / 126 40% 2 20.05.2028 -
Malte Heyde Esbjerg Ativo 117 / 125 40% 3 17.05.2028 -
Jan Bürger Northampton Town Ativo 124 / 136 40% 5 17.05.2028 -
Kamaldeen Atiemo Wa All Stars Ativo 99 / 100 40% 2 13.05.2028 -
Christos Mouzakitis Hull City Ativo 139 / 136 40% 4 13.05.2028 -
Federico Matarán Giana Erminio Ativo 101 / 126 40% 1 09.05.2028 -
Ayden Heaven Portsmouth Ativo 136 / 149 40% 1 08.05.2028 -
Kiani Inge Groningen Ativo 120 / 110 40% 3 07.05.2028 -
Tyler Fletcher Rotherham United Ativo 120 / 117 40% 2 07.05.2028 -
Olivier Leroux Mouscron Ativo 102 / 124 40% 2 01.05.2028 -
Kwesi Sorotu Badori Berekum Chelsea Ativo 103 / 107 40% 2 30.04.2028 -
Martim Cunha Porto Ativo 103 / 100 40% 1 24.04.2028 -
Josh Acheampong Everton Ativo 151 / 133 40% 1 23.04.2028 -
Jonny Shore New York City Ativo 110 / 103 40% 1 07.02.2028 -
Matvey Bardachev Zenit Ativo 110 / 130 40% 1 07.02.2028 -
Denis Grigorjev Arsenal Tula Ativo 72 / 86 40% 1 31.01.2028 -
Tobiáš Pališčák Zlin Ativo 92 / 100 40% 1 31.01.2028 -
Bitello Universidad de Chile Ativo 135 / 135 91% 1 01.01.2028 Aprovar
Facundo Torres Millonarios Ativo 134 / 134 67% 1 01.01.2028 Aprovar
Pedro de la Vega Columbus Crew Ativo 133 / 134 66% 1 01.06.2027 Aprovar
Luke Baartman Ajax Cape Town Ativo 97 / 126 40% 1 13.01.2027 -
Víctor Guzmán Sporting CP Ativo 91 / 98 40% 1 13.01.2027 -
Rocco Vata Watford Ativo 135 / 128 40% 1 12.01.2027 -
Will Lankshear Middlesbrough Ativo 109 / 131 40% 1 12.01.2027 -
Robert FC Copenhagen Ativo 123 / 125 40% 2 31.12.2026 -
Dennis Cirkin Queens Park Rangers Ativo 131 / 130 40% 4 31.12.2026 -
Bongani Zungu Ajax Cape Town Ativo 123 / 140 40% 8 30.12.2026 -
Juan Bezerra Zamalek Ativo 117 / 134 40% 1 30.12.2026 -
Kevin Yakob AGF Ativo 126 / 132 40% 3 29.12.2026 -
Finn Azaz Southampton Ativo 133 / 129 40% 1 29.12.2026 -
Sorba Thomas Stoke City Ativo 134 / 118 40% 2 27.12.2026 -
Alfie Gilchrist West Bromwich Albion Ativo 112 / 124 40% 1 27.12.2026 -
Tyrese Campbell Sheffield United Ativo 124 / 117 40% 2 23.12.2026 -
Joe Gelhardt Hull City Ativo 118 / 115 40% 2 23.12.2026 -
Jack Rudoni Coventry City Ativo 138 / 125 40% 1 23.12.2026 -
Tobias Bech AGF Ativo 130 / 124 40% 4 19.12.2026 -
Bosun Lawal Stoke City Ativo 114 / 139 40% 2 19.12.2026 -
Ali Ahmed Norwich City Ativo 131 / 112 40% 1 19.12.2026 -
Maicon Levski Ativo 133 / 117 40% 1 19.12.2026 -
Pedro Bravo FC Midtjylland Ativo 128 / 123 40% 6 17.12.2026 -
Mads Bech Sørensen FC Midtjylland Ativo 134 / 119 40% 1 17.12.2026 -
Kornelius Hansen Aalborg Ativo 111 / 103 40% 3 16.12.2026 -
Oswin Appollis Orlando Pirates Ativo 114 / 114 40% 4 15.12.2026 -
Mads Frøkjær Brondby Ativo 124 / 127 40% 2 15.12.2026 -
Andre Brooks Sheffield United Ativo 113 / 113 40% 1 15.12.2026 -
Jonathan Varane Queens Park Rangers Ativo 137 / 114 40% 1 13.12.2026 -
Dara O'Shea Ipswich Town Ativo 141 / 144 40% 1 13.12.2026 -
Max Bird Birmingham Ativo 143 / 117 40% 1 13.12.2026 -
Milan van Ewijk Coventry City Ativo 136 / 135 40% 1 11.12.2026 -
Reda Khadra Qarabag Ativo 134 / 144 40% 2 08.12.2026 -
Luis Binks Brondby Ativo 127 / 124 40% 1 08.12.2026 -
Brooke Norton-Cuffy Hull City Ativo 142 / 153 40% 1 07.12.2026 -
Jacques Ekomié Wrexham Ativo 141 / 124 40% 1 07.12.2026 -
Jacob Greaves Ipswich Town Ativo 133 / 139 40% 1 07.12.2026 -
Aidan Morris Middlesbrough Ativo 128 / 138 40% 1 03.12.2026 -
Kristoffer Lund Birmingham Ativo 138 / 112 40% 1 03.12.2026 -
Harrison Burrows Sheffield United Ativo 112 / 124 40% 1 03.12.2026 -
Teden Mengi Luton Town Ativo 125 / 139 40% 1 01.12.2026 -
Rasmus Carstensen AGF Ativo 119 / 123 40% 2 29.11.2026 -
Manu Morlanes Mallorca Ativo 143 / 119 40% 2 29.11.2026 -
Oliver Bundgaard Viborg Ativo 109 / 123 40% 3 28.11.2026 -
Ki-Jana Hoever Sparta Prague Ativo 137 / 143 40% 2 28.11.2026 -
Maks Ebong CSKA Sofia Ativo 128 / 116 40% 1 28.11.2026 -
Marcelo Allende Mamelodi Sundowns Ativo 123 / 127 40% 3 26.11.2026 -
Nicolò Bertola Udinese Ativo 130 / 130 40% 2 26.11.2026 -
Bernardo Vital Jagiellonia Ativo 123 / 128 40% 1 25.11.2026 -
Gabriel Pereira FC Copenhagen Ativo 124 / 135 40% 1 25.11.2026 -
Nazar Voloshyn Dynamo Kyiv Ativo 128 / 139 40% 2 23.11.2026 -
Tadeo Allende Inter Miami CF Ativo 113 / 107 40% 2 12.11.2026 -
Daniel Kyerewaa Reading Ativo 123 / 97 40% 2 12.11.2026 -
Jean-Manuel Mbom Viborg Ativo 124 / 126 40% 2 11.11.2026 -
Edward Chilufya FC Midtjylland Ativo 123 / 110 40% 2 10.11.2026 -
Daniel Karlsbakk Sarpsborg 08 Ativo 122 / 130 40% 1 10.11.2026 -
Sota Kitano Red Bull Salzburg Ativo 129 / 141 40% 2 09.11.2026 -
Peter Federico Gornik Zabrze Ativo 126 / 132 40% 3 08.11.2026 -
Yorbe Vertessen Red Bull Salzburg Ativo 121 / 138 40% 1 08.11.2026 -
Telasco Segovia Inter Miami CF Ativo 118 / 117 40% 4 05.11.2026 -
Ho-yeon Jung Minnesota United FC Ativo 112 / 106 40% 1 05.11.2026 -
Álex Centelles Levski Ativo 135 / 139 40% 1 05.11.2026 -
David Brekalo Orlando City Ativo 136 / 144 40% 1 04.11.2026 -
Nectar Triantis Minnesota United FC Ativo 134 / 141 40% 1 04.11.2026 -
Martín Ojeda Orlando City Ativo 135 / 125 40% 4 03.11.2026 -
Bradley Zwane SuperSport United Ativo 110 / 115 40% 4 31.10.2026 -
Marquinhos Spartak Moscow Ativo 135 / 122 40% 1 30.10.2026 -
Talles Magno New York City Ativo 136 / 128 40% 2 29.10.2026 -
David Da Costa Portland Timbers Ativo 139 / 131 40% 2 27.10.2026 -
Esequiel Barco Spartak Moscow Ativo 143 / 138 40% 1 27.10.2026 -
Bénie Traoré New York City Ativo 127 / 132 40% 2 26.10.2026 -
Matías Pellegrini Vélez Ativo 128 / 125 40% 1 25.10.2026 -
Sho Fukuda Brondby Ativo 119 / 111 40% 1 24.10.2026 -
Mariano Bracamonte Deportivo Riestra Ativo 121 / 128 40% 1 19.10.2026 -
Joaquín Pereyra Minnesota United FC Ativo 133 / 118 40% 5 15.10.2026 -
Iván Angulo Orlando City Ativo 129 / 115 40% 1 14.10.2026 -
Djordje Mihailović Toronto FC Ativo 125 / 146 40% 1 13.10.2026 -
Marco Pašalić Orlando City Ativo 123 / 121 40% 1 12.10.2026 -
Diego Luna Real Salt Lake Ativo 136 / 120 40% 2 10.10.2026 -
Alexander Aravena Portland Timbers Ativo 130 / 121 40% 1 10.10.2026 -
Jesus Ferreira Seattle Sounders Ativo 125 / 119 40% 1 07.10.2026 -
Marko Divković Brondby Ativo 123 / 120 40% 1 07.10.2026 -
Quinn Sullivan Philadelphia Union Ativo 131 / 118 40% 1 05.10.2026 -
Juan Manuel Sanabria Real Salt Lake Ativo 133 / 138 40% 2 02.10.2026 -
Brandon Vázquez Austin FC Ativo 116 / 123 40% 1 28.09.2026 -
Noah Ganaus OB Ativo 117 / 117 40% 1 28.09.2026 -
Nikolas Dyhr Randers Ativo 122 / 123 40% 1 24.09.2026 -
Paxten Aaronson Colorado Rapids Ativo 147 / 133 40% 1 23.09.2026 -
Ramiro Ruiz Rodríguez Atlético Tucumán Ativo 129 / 118 40% 1 23.09.2026 -
Hamzat Ojediran Colorado Rapids Ativo 130 / 113 40% 2 22.09.2026 -
Matthias Seidl Rapid Wien Ativo 126 / 129 40% 1 20.09.2026 -
Antony Portland Timbers Ativo 139 / 114 40% 2 14.09.2026 -
Santiago Rodríguez Columbus Crew Ativo 130 / 143 40% 1 13.09.2026 -
Leif Davis Ipswich Town Ativo 148 / 151 40% 1 13.09.2026 -
Hannes Wolf New York City Ativo 125 / 135 40% 1 11.09.2026 -
Juan Mosquera Portland Timbers Ativo 116 / 115 40% 1 11.09.2026 -
Junnosuke Suzuki FC Copenhagen Ativo 134 / 146 40% 1 11.09.2026 -
Tyrhys Dolan Espanyol Ativo 123 / 152 40% 1 09.09.2026 -
João Peglow DC United Ativo 122 / 114 40% 1 07.09.2026 -
Maxim De Cuyper Brighton Ativo 127 / 127 40% 1 07.09.2026 -
Philippe Ndinga Philadelphia Union Ativo 118 / 100 40% 1 19.08.2026 -
Ignacio Aliseda Cerro Porteno Ativo 117 / 116 40% 1 04.08.2026 -
Iliya Gruev Leeds United Ativo 121 / 130 40% 1 04.08.2026 -
Toby Collyer West Bromwich Albion Ativo 128 / 145 40% 1 01.08.2026 -
Antonio Sánchez Mallorca Ativo 126 / 111 40% 1 01.08.2026 -